Time,TemperatureF,DewpointF,PressureIn,WindDirection,WindDirectionDegrees,WindSpeedMPH,WindSpeedGustMPH,Humidity,HourlyPrecipIn,Conditions,Clouds,dailyrainin,SoftwareType,DateUTC
2013-12-16 00:05:00,19.4,18.0,29.72,WNW,289,0.0,1.0,93,0.00,,,0.00,weatherlink.com 1.10,2013-12-16 05:05:00,
2013-12-16 00:20:00,19.8,18.0,29.72,NW,317,0.0,2.0,93,0.00,,,0.00,weatherlink.com 1.10,2013-12-16 05:20:00,
2013-12-16 00:35:00,20.7,19.0,29.73,WNW,295,0.0,2.0,91,0.00,,,0.00,weatherlink.com 1.10,2013-12-16 05:35:00,
2013-12-16 00:50:00,20.5,18.0,29.73,WNW,295,0.0,1.0,91,0.00,,,0.00,weatherlink.com 1.10,2013-12-16 05:50:00,
2013-12-16 01:05:00,19.8,18.0,29.73,WNW,295,0.0,1.0,91,0.00,,,0.00,weatherlink.com 1.10,2013-12-16 06:05:00,
2013-12-16 01:20:00,20.1,18.0,29.74,WNW,295,0.0,1.0,92,0.00,,,0.00,weatherlink.com 1.10,2013-12-16 06:20:00,
2013-12-16 01:35:00,20.2,18.0,29.74,WNW,295,0.0,1.0,92,0.00,,,0.00,weatherlink.com 1.10,2013-12-16 06:35:00,
2013-12-16 01:50:00,20.7,19.0,29.74,WNW,295,0.0,0.0,93,0.00,,,0.00,weatherlink.com 1.10,2013-12-16 06:50:00,
2013-12-16 02:05:00,20.9,19.0,29.75,WNW,295,0.0,1.0,92,0.00,,,0.00,weatherlink.com 1.10,2013-12-16 07:05:00,
2013-12-16 02:20:00,21.2,19.0,29.76,WNW,295,0.0,1.0,92,0.00,,,0.00,weatherlink.com 1.10,2013-12-16 07:20:00,
2013-12-16 02:35:00,21.4,20.0,29.77,WNW,295,0.0,1.0,92,0.00,,,0.00,weatherlink.com 1.10,2013-12-16 07:35:00,
2013-12-16 02:50:00,21.4,20.0,29.77,WNW,295,0.0,1.0,92,0.00,,,0.00,weatherlink.com 1.10,2013-12-16 07:50:00,
2013-12-16 03:05:00,21.4,20.0,29.77,WNW,295,0.0,0.0,92,0.00,,,0.00,weatherlink.com 1.10,2013-12-16 08:05:00,
2013-12-16 03:20:00,21.7,20.0,29.77,WNW,295,0.0,0.0,93,0.00,,,0.00,weatherlink.com 1.10,2013-12-16 08:20:00,
2013-12-16 03:35:00,21.9,20.0,29.78,WNW,295,0.0,1.0,93,0.00,,,0.00,weatherlink.com 1.10,2013-12-16 08:35:00,
2013-12-16 03:50:00,22.5,20.0,29.77,WNW,295,0.0,3.0,91,0.00,,,0.00,weatherlink.com 1.10,2013-12-16 08:50:00,
2013-12-16 04:05:00,22.4,20.0,29.77,WNW,290,0.0,3.0,90,0.00,,,0.00,weatherlink.com 1.10,2013-12-16 09:05:00,
2013-12-16 04:20:00,21.8,19.0,29.78,West,274,1.0,3.0,90,0.00,,,0.00,weatherlink.com 1.10,2013-12-16 09:20:00,
2013-12-16 04:35:00,21.7,19.0,29.79,WNW,293,0.0,3.0,90,0.00,,,0.00,weatherlink.com 1.10,2013-12-16 09:35:00,
2013-12-16 04:50:00,21.4,19.0,29.79,NW,307,0.0,5.0,90,0.00,,,0.00,weatherlink.com 1.10,2013-12-16 09:50:00,
2013-12-16 05:05:00,21.1,19.0,29.80,NW,307,0.0,1.0,90,0.00,,,0.00,weatherlink.com 1.10,2013-12-16 10:05:00,
2013-12-16 05:20:00,20.6,18.0,29.80,WNW,295,0.0,2.0,89,0.00,,,0.00,weatherlink.com 1.10,2013-12-16 10:20:00,
2013-12-16 05:36:00,20.7,16.0,29.81,NW,314,3.0,9.0,83,0.00,,,0.00,weatherlink.com 1.10,2013-12-16 10:36:00,
2013-12-16 05:51:00,20.9,15.0,29.82,NW,319,3.0,10.0,78,0.00,,,0.00,weatherlink.com 1.10,2013-12-16 10:51:00,
2013-12-16 06:06:00,20.9,14.0,29.83,NW,317,8.0,11.0,75,0.00,,,0.00,weatherlink.com 1.10,2013-12-16 11:06:00,
2013-12-16 06:21:00,20.8,14.0,29.83,NW,314,5.0,9.0,74,0.00,,,0.00,weatherlink.com 1.10,2013-12-16 11:21:00,
2013-12-16 06:36:00,20.7,13.0,29.84,NW,326,4.0,11.0,73,0.00,,,0.00,weatherlink.com 1.10,2013-12-16 11:36:00,
2013-12-16 06:51:00,20.8,12.0,29.85,WNW,301,3.0,13.0,70,0.00,,,0.00,weatherlink.com 1.10,2013-12-16 11:51:00,
2013-12-16 07:06:00,20.7,12.0,29.86,NW,305,2.0,12.0,70,0.00,,,0.00,weatherlink.com 1.10,2013-12-16 12:06:00,
2013-12-16 07:21:00,20.5,12.0,29.86,WNW,299,4.0,11.0,69,0.00,,,0.00,weatherlink.com 1.10,2013-12-16 12:21:00,
2013-12-16 07:36:00,20.5,11.0,29.87,WNW,293,6.0,13.0,68,0.00,,,0.00,weatherlink.com 1.10,2013-12-16 12:36:00,
2013-12-16 07:51:00,20.3,12.0,29.88,WNW,298,1.0,10.0,70,0.00,,,0.00,weatherlink.com 1.10,2013-12-16 12:51:00,
2013-12-16 08:06:00,20.2,12.0,29.89,WNW,301,2.0,12.0,70,0.00,,,0.00,weatherlink.com 1.10,2013-12-16 13:06:00,
2013-12-16 08:21:00,20.5,12.0,29.89,NW,315,3.0,12.0,69,0.00,,,0.00,weatherlink.com 1.10,2013-12-16 13:21:00,
2013-12-16 08:36:00,20.8,12.0,29.90,WNW,303,4.0,11.0,68,0.00,,,0.00,weatherlink.com 1.10,2013-12-16 13:36:00,
2013-12-16 08:51:00,21.2,11.0,29.92,WNW,288,5.0,14.0,66,0.00,,,0.00,weatherlink.com 1.10,2013-12-16 13:51:00,
2013-12-16 09:06:00,21.5,11.0,29.92,West,278,4.0,18.0,65,0.00,,,0.00,weatherlink.com 1.10,2013-12-16 14:06:00,
2013-12-16 09:21:00,21.8,11.0,29.93,NW,319,14.0,14.0,64,0.00,,,0.00,weatherlink.com 1.10,2013-12-16 14:21:00,
2013-12-16 09:36:00,22.2,11.0,29.93,WNW,298,6.0,11.0,63,0.00,,,0.00,weatherlink.com 1.10,2013-12-16 14:36:00,
2013-12-16 09:51:00,22.5,11.0,29.94,NW,316,2.0,11.0,62,0.00,,,0.00,weatherlink.com 1.10,2013-12-16 14:51:00,
2013-12-16 10:06:00,22.7,11.0,29.94,NW,314,5.0,17.0,60,0.00,,,0.00,weatherlink.com 1.10,2013-12-16 15:06:00,
2013-12-16 10:21:00,23.1,10.0,29.95,NW,310,6.0,17.0,58,0.00,,,0.00,weatherlink.com 1.10,2013-12-16 15:21:00,
2013-12-16 10:36:00,23.2,9.0,29.95,NW,315,6.0,13.0,56,0.00,,,0.00,weatherlink.com 1.10,2013-12-16 15:36:00,
2013-12-16 10:51:00,23.5,9.0,29.94,NW,307,5.0,13.0,54,0.00,,,0.00,weatherlink.com 1.10,2013-12-16 15:51:00,
2013-12-16 11:06:00,23.7,9.0,29.94,WNW,297,2.0,18.0,53,0.00,,,0.00,weatherlink.com 1.10,2013-12-16 16:06:00,
2013-12-16 11:22:00,24.0,7.0,29.93,NNW,333,6.0,17.0,48,0.00,,,0.00,weatherlink.com 1.10,2013-12-16 16:22:00,
2013-12-16 11:37:00,24.1,6.0,29.93,WNW,288,2.0,16.0,47,0.00,,,0.00,weatherlink.com 1.10,2013-12-16 16:37:00,
2013-12-16 11:52:00,24.5,4.0,29.94,NNW,331,5.0,17.0,42,0.00,,,0.00,weatherlink.com 1.10,2013-12-16 16:52:00,
2013-12-16 12:07:00,24.6,5.0,29.93,WNW,302,4.0,18.0,43,0.00,,,0.00,weatherlink.com 1.10,2013-12-16 17:07:00,
2013-12-16 12:22:00,24.6,5.0,29.94,NNW,331,11.0,18.0,43,0.00,,,0.00,weatherlink.com 1.10,2013-12-16 17:22:00,
2013-12-16 12:37:00,24.7,5.0,29.94,West,281,6.0,15.0,43,0.00,,,0.00,weatherlink.com 1.10,2013-12-16 17:37:00,
2013-12-16 12:52:00,24.7,5.0,29.94,NNW,327,11.0,17.0,43,0.00,,,0.00,weatherlink.com 1.10,2013-12-16 17:52:00,
2013-12-16 13:07:00,24.7,5.0,29.94,NNW,338,10.0,17.0,43,0.00,,,0.00,weatherlink.com 1.10,2013-12-16 18:07:00,
2013-12-16 13:22:00,24.7,4.0,29.95,NW,316,6.0,23.0,42,0.00,,,0.00,weatherlink.com 1.10,2013-12-16 18:22:00,
2013-12-16 13:37:00,24.6,6.0,29.95,NW,319,6.0,16.0,45,0.00,,,0.00,weatherlink.com 1.10,2013-12-16 18:37:00,
2013-12-16 13:52:00,24.7,5.0,29.95,NW,321,4.0,17.0,43,0.00,,,0.00,weatherlink.com 1.10,2013-12-16 18:52:00,
2013-12-16 14:07:00,24.7,6.0,29.95,NW,306,3.0,22.0,44,0.00,,,0.00,weatherlink.com 1.10,2013-12-16 19:07:00,
2013-12-16 14:22:00,24.5,4.0,29.96,NW,326,9.0,21.0,42,0.00,,,0.00,weatherlink.com 1.10,2013-12-16 19:22:00,
2013-12-16 14:37:00,24.4,5.0,29.97,NW,311,4.0,18.0,43,0.00,,,0.00,weatherlink.com 1.10,2013-12-16 19:37:00,
2013-12-16 14:52:00,24.1,5.0,29.98,NW,322,7.0,19.0,45,0.00,,,0.00,weatherlink.com 1.10,2013-12-16 19:52:00,
2013-12-16 15:07:00,23.3,6.0,29.99,North,352,7.0,15.0,47,0.00,,,0.00,weatherlink.com 1.10,2013-12-16 20:07:00,
2013-12-16 15:22:00,23.1,6.0,30.00,NW,323,6.0,19.0,48,0.00,,,0.00,weatherlink.com 1.10,2013-12-16 20:22:00,
2013-12-16 15:37:00,22.9,7.0,30.01,WNW,297,3.0,14.0,50,0.00,,,0.00,weatherlink.com 1.10,2013-12-16 20:37:00,
2013-12-16 15:52:00,22.7,7.0,30.02,WNW,286,4.0,9.0,50,0.00,,,0.00,weatherlink.com 1.10,2013-12-16 20:52:00,
2013-12-16 16:07:00,22.1,6.0,30.02,NNW,335,7.0,14.0,50,0.00,,,0.00,weatherlink.com 1.10,2013-12-16 21:07:00,
2013-12-16 16:22:00,21.7,6.0,30.03,WNW,298,4.0,19.0,50,0.00,,,0.00,weatherlink.com 1.10,2013-12-16 21:22:00,
2013-12-16 16:37:00,21.3,6.0,30.04,NNW,338,5.0,13.0,51,0.00,,,0.00,weatherlink.com 1.10,2013-12-16 21:37:00,
2013-12-16 16:52:00,21.0,6.0,30.04,NW,315,3.0,15.0,52,0.00,,,0.00,weatherlink.com 1.10,2013-12-16 21:52:00,
2013-12-16 17:07:00,20.6,6.0,30.05,WSW,253,3.0,11.0,53,0.00,,,0.00,weatherlink.com 1.10,2013-12-16 22:07:00,
2013-12-16 17:22:00,20.4,6.0,30.06,WNW,302,2.0,11.0,53,0.00,,,0.00,weatherlink.com 1.10,2013-12-16 22:22:00,
2013-12-16 17:37:00,20.2,6.0,30.06,NW,305,3.0,10.0,54,0.00,,,0.00,weatherlink.com 1.10,2013-12-16 22:37:00,
2013-12-16 17:52:00,19.9,6.0,30.07,WNW,290,1.0,9.0,55,0.00,,,0.00,weatherlink.com 1.10,2013-12-16 22:52:00,
2013-12-16 18:07:00,19.5,6.0,30.07,NW,313,3.0,8.0,56,0.00,,,0.00,weatherlink.com 1.10,2013-12-16 23:07:00,
2013-12-16 18:22:00,19.3,6.0,30.08,NW,314,6.0,12.0,57,0.00,,,0.00,weatherlink.com 1.10,2013-12-16 23:22:00,
2013-12-16 18:37:00,19.2,6.0,30.08,WNW,294,1.0,9.0,57,0.00,,,0.00,weatherlink.com 1.10,2013-12-16 23:37:00,
2013-12-16 18:52:00,18.9,7.0,30.10,NW,305,0.0,5.0,59,0.00,,,0.00,weatherlink.com 1.10,2013-12-16 23:52:00,
2013-12-16 19:07:00,18.3,6.0,30.10,NW,304,2.0,6.0,60,0.00,,,0.00,weatherlink.com 1.10,2013-12-17 00:07:00,
2013-12-16 19:22:00,17.9,6.0,30.11,WNW,300,1.0,5.0,61,0.00,,,0.00,weatherlink.com 1.10,2013-12-17 00:22:00,
2013-12-16 19:37:00,17.9,6.0,30.12,WNW,293,1.0,9.0,61,0.00,,,0.00,weatherlink.com 1.10,2013-12-17 00:37:00,
2013-12-16 19:52:00,17.9,6.0,30.12,WNW,286,0.0,7.0,61,0.00,,,0.00,weatherlink.com 1.10,2013-12-17 00:52:00,
2013-12-16 20:08:00,17.4,6.0,30.13,WNW,285,0.0,2.0,62,0.00,,,0.00,weatherlink.com 1.10,2013-12-17 01:08:00,
2013-12-16 20:23:00,17.0,6.0,30.14,WNW,292,1.0,1.0,63,0.00,,,0.00,weatherlink.com 1.10,2013-12-17 01:23:00,
2013-12-16 20:38:00,16.5,6.0,30.14,WNW,295,1.0,2.0,64,0.00,,,0.00,weatherlink.com 1.10,2013-12-17 01:38:00,
2013-12-16 20:53:00,16.5,6.0,30.15,NW,305,1.0,3.0,64,0.00,,,0.00,weatherlink.com 1.10,2013-12-17 01:53:00,
2013-12-16 21:08:00,16.3,6.0,30.15,NW,313,2.0,4.0,65,0.00,,,0.00,weatherlink.com 1.10,2013-12-17 02:08:00,
2013-12-16 21:23:00,16.6,6.0,30.16,WNW,295,1.0,6.0,64,0.00,,,0.00,weatherlink.com 1.10,2013-12-17 02:23:00,
2013-12-16 21:38:00,16.8,6.0,30.16,NNW,329,6.0,9.0,63,0.00,,,0.00,weatherlink.com 1.10,2013-12-17 02:38:00,
2013-12-16 21:53:00,16.7,6.0,30.17,WNW,286,1.0,7.0,63,0.00,,,0.00,weatherlink.com 1.10,2013-12-17 02:53:00,
2013-12-16 22:08:00,16.3,6.0,30.17,WNW,293,0.0,6.0,63,0.00,,,0.00,weatherlink.com 1.10,2013-12-17 03:08:00,
2013-12-16 22:23:00,15.8,6.0,30.17,NW,325,3.0,5.0,64,0.00,,,0.00,weatherlink.com 1.10,2013-12-17 03:23:00,
2013-12-16 22:38:00,15.4,5.0,30.18,NW,323,2.0,5.0,64,0.00,,,0.00,weatherlink.com 1.10,2013-12-17 03:38:00,
2013-12-16 22:53:00,15.4,5.0,30.18,WNW,293,1.0,5.0,63,0.00,,,0.00,weatherlink.com 1.10,2013-12-17 03:53:00,
2013-12-16 23:08:00,15.0,5.0,30.18,NW,322,2.0,5.0,64,0.00,,,0.00,weatherlink.com 1.10,2013-12-17 04:08:00,
2013-12-16 23:23:00,14.3,4.0,30.18,WNW,300,0.0,1.0,65,0.00,,,0.00,weatherlink.com 1.10,2013-12-17 04:23:00,
2013-12-16 23:38:00,12.9,4.0,30.19,WNW,300,0.0,0.0,67,0.00,,,0.00,weatherlink.com 1.10,2013-12-17 04:38:00,
2013-12-16 23:53:00,12.5,4.0,30.19,WNW,300,0.0,0.0,68,0.00,,,0.00,weatherlink.com 1.10,2013-12-17 04:53:00,